ROMMA est une association bénévole à but non lucratif. Votre soutien est indispensable : ADHERER à ROMMA ou FAIRE un DON

Briord - (01, Ain)

Bugey (281 m)   Longitude: 05° 29' 13" E   Latitude: 45° 46' 37" N Station partenaire n°15
 

Détail journalier du     <<     >>

Température Precipitation Humidité Pression Vent Dir Rafale Dir. rafale Ensol.
Heure (°C) (mm) (%) (hPa) (km/h) (km/h) (min)
01:00 -4.408810341---6SSE0
02:00 -4.3087103405NE0
03:00 -4.808710351E10SSE0
04:00 -5.108910341SE10SSE0
05:00 -5.7089103405SE0
06:00 -5.7090103405N0
07:00 -5.7090103406ESE0
08:00 -6.1090103503NNE0
09:00 -6.1091103506S0
10:00 -4.6091103603SSE5
11:00 -1.4086103606SE45
12:00 0.5081103602SSE60
13:00 1.9076103503SE60
14:00 3.3072103603O60
15:00 4.3070103603SSE60
16:00 4.8070103603S60
17:00 0.4083103700---35
18:00 -1.3089103700---0
19:00 -2.2090103700---0
20:00 -2.7091103800---0
21:00 -2.9091103700---0
22:00 -3.5092103700---0
23:00 -3.8092103700---0
minuit -4.4092103700---0

Graphique du 04-01-2019

 

Serveur OMMA